createdAt,value
2022-09-09T00:00:36.475Z,10.50
2022-09-09T00:01:36.435Z,10.40
2022-09-09T00:02:36.593Z,10.60
2022-09-09T00:03:36.477Z,10.40
2022-09-09T00:04:36.423Z,10.30
2022-09-09T00:05:36.404Z,10.80
2022-09-09T00:06:36.414Z,10.70
2022-09-09T00:07:36.397Z,10.30
2022-09-09T00:08:36.448Z,10.40
2022-09-09T00:09:36.348Z,10.10
2022-09-09T00:10:36.336Z,10.20
2022-09-09T00:11:36.356Z,10.50
2022-09-09T00:12:36.315Z,10.20
2022-09-09T00:13:36.297Z,10.30
2022-09-09T00:14:36.286Z,9.70
2022-09-09T00:15:36.472Z,10.30
2022-09-09T00:16:36.245Z,10.40
2022-09-09T00:17:36.246Z,10.10
2022-09-09T00:18:36.356Z,9.90
2022-09-09T00:19:36.217Z,10.60
2022-09-09T00:20:36.198Z,10.10
2022-09-09T00:21:36.187Z,10.50
2022-09-09T00:22:36.179Z,10.00
2022-09-09T00:23:36.177Z,10.10
2022-09-09T00:24:36.179Z,9.90
2022-09-09T00:25:36.140Z,10.00
2022-09-09T00:26:36.140Z,10.50
2022-09-09T00:27:36.112Z,10.20
2022-09-09T00:28:36.200Z,10.10
2022-09-09T00:29:36.090Z,9.80
2022-09-09T00:30:43.138Z,9.90
2022-09-09T00:31:36.046Z,10.20
2022-09-09T00:32:36.036Z,10.50
2022-09-09T00:33:36.035Z,10.60
2022-09-09T00:34:36.007Z,10.50
2022-09-09T00:35:36.016Z,10.60
2022-09-09T00:36:36.074Z,10.20
2022-09-09T00:37:35.966Z,10.10
2022-09-09T00:38:36.254Z,10.30
2022-09-09T00:39:36.000Z,10.40
2022-09-09T00:40:35.994Z,10.20
2022-09-09T00:41:35.905Z,10.20
2022-09-09T00:42:35.913Z,10.00
2022-09-09T00:43:35.888Z,10.20
2022-09-09T00:44:35.878Z,10.30
2022-09-09T00:45:35.857Z,10.40
2022-09-09T00:46:36.135Z,10.20
2022-09-09T00:47:35.838Z,10.90
2022-09-09T00:48:35.885Z,10.40
2022-09-09T00:49:35.808Z,10.30
2022-09-09T00:50:35.799Z,10.40
2022-09-09T00:51:35.835Z,10.00
2022-09-09T00:52:35.766Z,10.10
2022-09-09T00:53:35.757Z,10.70
2022-09-09T00:54:35.746Z,10.10
2022-09-09T00:55:35.817Z,11.00
2022-09-09T00:56:35.716Z,10.40
2022-09-09T00:57:35.749Z,10.50
2022-09-09T00:58:35.894Z,10.50
2022-09-09T00:59:35.692Z,10.80
2022-09-09T01:00:35.666Z,10.00
2022-09-09T01:01:35.784Z,10.40
2022-09-09T01:02:35.677Z,10.30
2022-09-09T01:03:35.829Z,10.30
2022-09-09T01:04:35.658Z,10.20
2022-09-09T01:05:35.608Z,10.00
2022-09-09T01:06:35.599Z,10.60
2022-09-09T01:07:35.589Z,10.40
2022-09-09T01:08:35.650Z,10.40
2022-09-09T01:09:35.537Z,10.10
2022-09-09T01:10:35.527Z,10.50
2022-09-09T01:11:35.516Z,11.20
2022-09-09T01:12:35.522Z,10.70
2022-09-09T01:13:35.507Z,10.20
2022-09-09T01:14:35.518Z,10.30
2022-09-09T01:15:35.477Z,10.00
2022-09-09T01:16:35.551Z,10.10
2022-09-09T01:17:35.441Z,10.40
2022-09-09T01:18:35.710Z,10.20
2022-09-09T01:19:35.421Z,10.30
2022-09-09T01:20:35.465Z,10.30
2022-09-09T01:21:35.429Z,10.60
2022-09-09T01:22:35.383Z,10.60
2022-09-09T01:23:35.408Z,10.60
2022-09-09T01:24:35.358Z,10.80
2022-09-09T01:25:35.340Z,10.60
2022-09-09T01:26:35.321Z,10.70
2022-09-09T01:27:35.309Z,10.10
2022-09-09T01:28:35.348Z,10.80
2022-09-09T01:29:35.310Z,10.60
2022-09-09T01:30:35.381Z,10.40
2022-09-09T01:31:35.332Z,10.40
2022-09-09T01:32:35.252Z,10.20
2022-09-09T01:33:35.241Z,11.20
2022-09-09T01:34:35.228Z,11.00
2022-09-09T01:35:35.199Z,10.60
2022-09-09T01:36:35.200Z,10.70
2022-09-09T01:37:35.221Z,10.30
2022-09-09T01:38:35.248Z,10.60
2022-09-09T01:39:35.250Z,10.90
2022-09-09T01:40:35.152Z,10.70
2022-09-09T01:41:35.141Z,10.80
2022-09-09T01:42:35.122Z,10.80
2022-09-09T01:43:35.111Z,10.80
2022-09-09T01:44:35.110Z,10.70
2022-09-09T01:45:35.111Z,10.80
2022-09-09T01:46:35.122Z,10.50
2022-09-09T01:47:35.041Z,10.30
2022-09-09T01:48:35.254Z,10.50
2022-09-09T01:49:35.149Z,10.60
2022-09-09T01:50:35.002Z,10.80
2022-09-09T01:51:34.992Z,11.00
2022-09-09T01:52:34.988Z,10.90
2022-09-09T01:53:34.981Z,10.80
2022-09-09T01:54:34.948Z,10.70
2022-09-09T01:55:34.968Z,10.70
2022-09-09T01:56:34.934Z,11.00
2022-09-09T01:57:34.923Z,10.90
2022-09-09T01:58:35.139Z,11.00
2022-09-09T01:59:34.941Z,10.90
2022-09-09T02:00:34.884Z,11.20
2022-09-09T02:01:34.966Z,11.10
2022-09-09T02:02:34.892Z,10.70
2022-09-09T02:03:34.833Z,10.60
2022-09-09T02:04:34.833Z,11.20
2022-09-09T02:05:34.802Z,10.80
2022-09-09T02:06:34.813Z,10.80
2022-09-09T02:07:34.781Z,10.80
2022-09-09T02:08:34.882Z,11.10
2022-09-09T02:09:34.753Z,10.70
2022-09-09T02:10:34.778Z,10.90
2022-09-09T02:11:34.738Z,10.80
2022-09-09T02:12:34.783Z,11.00
2022-09-09T02:13:34.706Z,10.60
2022-09-09T02:14:34.724Z,10.70
2022-09-09T02:15:34.754Z,10.70
2022-09-09T02:16:34.755Z,11.00
2022-09-09T02:17:34.660Z,10.70
2022-09-09T02:18:34.936Z,11.00
2022-09-09T02:19:34.623Z,11.00
2022-09-09T02:20:35.176Z,10.90
2022-09-09T02:21:34.595Z,10.80
2022-09-09T02:22:34.623Z,10.50
2022-09-09T02:23:34.564Z,11.00
2022-09-09T02:24:34.554Z,10.60
2022-09-09T02:25:34.556Z,10.50
2022-09-09T02:26:34.534Z,10.60
2022-09-09T02:27:34.515Z,10.50
2022-09-09T02:28:34.541Z,10.40
2022-09-09T02:29:34.486Z,10.60
2022-09-09T02:30:34.533Z,10.70
2022-09-09T02:31:34.476Z,11.30
2022-09-09T02:32:34.449Z,10.60
2022-09-09T02:33:34.436Z,10.80
2022-09-09T02:34:34.536Z,10.90
2022-09-09T02:35:34.406Z,11.50
2022-09-09T02:36:34.491Z,10.80
2022-09-09T02:37:34.375Z,10.90
2022-09-09T02:38:34.478Z,11.00
2022-09-09T02:39:34.383Z,11.50
2022-09-09T02:40:34.352Z,11.20
2022-09-09T02:41:34.335Z,11.00
2022-09-09T02:42:34.430Z,11.00
2022-09-09T02:43:34.301Z,11.00
2022-09-09T02:44:34.309Z,10.80
2022-09-09T02:45:34.274Z,10.60
2022-09-09T02:46:34.255Z,10.40
2022-09-09T02:47:34.244Z,11.20
2022-09-09T02:48:34.301Z,11.00
2022-09-09T02:49:34.206Z,10.80
2022-09-09T02:50:34.196Z,11.20
2022-09-09T02:51:34.197Z,11.00
2022-09-09T02:52:34.205Z,10.80
2022-09-09T02:53:34.188Z,10.60
2022-09-09T02:54:34.158Z,10.80
2022-09-09T02:55:34.140Z,10.70
2022-09-09T02:56:34.138Z,10.70
2022-09-09T02:57:34.128Z,10.80
2022-09-09T02:58:34.188Z,11.30
2022-09-09T02:59:34.076Z,11.10
2022-09-09T03:00:34.067Z,10.60
2022-09-09T03:01:34.143Z,10.60
2022-09-09T03:02:34.174Z,11.20
2022-09-09T03:03:34.030Z,11.60
2022-09-09T03:04:34.042Z,10.50
2022-09-09T03:05:34.002Z,10.40
2022-09-09T03:06:33.988Z,10.30
2022-09-09T03:07:33.981Z,10.80
2022-09-09T03:08:33.991Z,10.80
2022-09-09T03:09:33.969Z,11.80
2022-09-09T03:10:33.975Z,11.10
2022-09-09T03:11:33.919Z,11.10
2022-09-09T03:12:33.917Z,10.70
2022-09-09T03:13:33.891Z,10.80
2022-09-09T03:14:33.900Z,11.10
2022-09-09T03:15:33.875Z,10.80
2022-09-09T03:16:33.891Z,10.80
2022-09-09T03:17:33.838Z,11.00
2022-09-09T03:18:33.838Z,11.20
2022-09-09T03:19:33.855Z,10.80
2022-09-09T03:20:33.817Z,11.30
2022-09-09T03:21:33.838Z,11.30
2022-09-09T03:22:33.800Z,11.30
2022-09-09T03:23:33.761Z,10.90
2022-09-09T03:24:33.751Z,11.00
2022-09-09T03:25:33.745Z,11.90
2022-09-09T03:26:33.733Z,11.70
2022-09-09T03:27:33.764Z,11.30
2022-09-09T03:28:33.799Z,11.30
2022-09-09T03:29:33.702Z,11.10
2022-09-09T03:30:33.670Z,11.20
2022-09-09T03:31:33.665Z,11.30
2022-09-09T03:32:33.664Z,11.20
2022-09-09T03:33:33.618Z,11.20
2022-09-09T03:34:33.609Z,11.70
2022-09-09T03:35:33.589Z,11.70
2022-09-09T03:36:33.579Z,11.80
2022-09-09T03:37:33.570Z,11.40
2022-09-09T03:38:33.663Z,11.40
2022-09-09T03:39:33.586Z,11.90
2022-09-09T03:40:33.533Z,11.40
2022-09-09T03:41:33.512Z,11.20
2022-09-09T03:42:33.513Z,11.50
2022-09-09T03:43:33.489Z,12.10
2022-09-09T03:44:33.471Z,11.40
2022-09-09T03:45:33.489Z,11.50
2022-09-09T03:46:33.451Z,12.00
2022-09-09T03:47:33.462Z,11.40
2022-09-09T03:48:33.544Z,11.60
2022-09-09T03:49:33.465Z,11.90
2022-09-09T03:50:33.394Z,11.60
2022-09-09T03:51:33.426Z,11.70
2022-09-09T03:52:33.363Z,11.60
2022-09-09T03:53:33.353Z,11.30
2022-09-09T03:54:33.344Z,11.20
2022-09-09T03:55:33.332Z,11.40
2022-09-09T03:56:33.312Z,11.40
2022-09-09T03:57:33.330Z,11.60
2022-09-09T03:58:33.315Z,11.30
2022-09-09T03:59:33.281Z,10.90
2022-09-09T04:00:33.258Z,11.00
2022-09-09T04:01:33.290Z,11.20
2022-09-09T04:02:33.296Z,11.20
2022-09-09T04:03:33.213Z,11.10
2022-09-09T04:04:33.203Z,11.20
2022-09-09T04:05:33.205Z,11.10
2022-09-09T04:06:33.174Z,11.20
2022-09-09T04:07:33.171Z,11.00
2022-09-09T04:08:33.324Z,11.70
2022-09-09T04:09:33.146Z,10.80
2022-09-09T04:10:33.135Z,11.70
2022-09-09T04:11:33.113Z,11.30
2022-09-09T04:12:33.094Z,11.40
2022-09-09T04:13:33.089Z,12.10
2022-09-09T04:14:33.062Z,11.20
2022-09-09T04:15:33.054Z,11.50
2022-09-09T04:16:33.087Z,11.20
2022-09-09T04:17:33.042Z,11.60
2022-09-09T04:18:33.091Z,11.50
2022-09-09T04:19:33.015Z,11.40
2022-09-09T04:20:32.996Z,11.30
2022-09-09T04:21:33.015Z,11.30
2022-09-09T04:22:32.991Z,11.20
2022-09-09T04:23:32.964Z,11.60
2022-09-09T04:24:32.960Z,11.60
2022-09-09T04:25:32.937Z,11.30
2022-09-09T04:26:32.915Z,11.70
2022-09-09T04:27:32.894Z,11.50
2022-09-09T04:28:32.934Z,11.30
2022-09-09T04:29:32.863Z,11.40
2022-09-09T04:30:32.853Z,11.50
2022-09-09T04:31:32.891Z,11.90
2022-09-09T04:32:32.834Z,11.80
2022-09-09T04:33:35.957Z,11.90
2022-09-09T04:34:33.802Z,11.90
2022-09-09T04:35:32.807Z,11.60
2022-09-09T04:36:32.785Z,11.90
2022-09-09T04:37:32.776Z,11.60
2022-09-09T04:38:32.829Z,12.00
2022-09-09T04:39:32.891Z,11.30
2022-09-09T04:40:32.756Z,11.90
2022-09-09T04:41:32.723Z,12.10
2022-09-09T04:42:32.706Z,11.60
2022-09-09T04:43:32.693Z,11.90
2022-09-09T04:44:32.674Z,11.70
2022-09-09T04:45:32.682Z,11.50
2022-09-09T04:46:32.635Z,11.60
2022-09-09T04:47:32.635Z,12.10
2022-09-09T04:48:32.699Z,11.40
2022-09-09T04:49:32.624Z,11.30
2022-09-09T04:50:32.596Z,12.20
2022-09-09T04:51:32.582Z,11.70
2022-09-09T04:52:32.565Z,12.30
2022-09-09T04:53:32.552Z,11.50
2022-09-09T04:54:32.545Z,11.70
2022-09-09T04:55:32.533Z,11.70
2022-09-09T04:56:32.517Z,11.60
2022-09-09T04:57:32.499Z,11.60
2022-09-09T04:58:32.549Z,12.10
2022-09-09T04:59:32.481Z,11.60
2022-09-09T05:00:32.548Z,11.70
2022-09-09T05:01:32.458Z,11.80
2022-09-09T05:02:32.453Z,11.50
2022-09-09T05:03:32.421Z,12.00
2022-09-09T05:04:32.398Z,11.50
2022-09-09T05:05:32.481Z,11.60
2022-09-09T05:06:32.394Z,11.60
2022-09-09T05:07:32.365Z,11.60
2022-09-09T05:08:32.433Z,11.90
2022-09-09T05:09:32.338Z,11.40
2022-09-09T05:10:32.319Z,11.80
2022-09-09T05:11:32.317Z,11.40
2022-09-09T05:12:32.299Z,11.40
2022-09-09T05:13:32.283Z,11.90
2022-09-09T05:14:32.327Z,11.50
2022-09-09T05:15:32.357Z,11.10
2022-09-09T05:16:32.380Z,11.60
2022-09-09T05:17:32.229Z,11.50
2022-09-09T05:18:32.218Z,11.20
2022-09-09T05:19:32.219Z,11.30
2022-09-09T05:20:32.197Z,11.30
2022-09-09T05:21:32.188Z,11.20
2022-09-09T05:22:32.220Z,11.00
2022-09-09T05:23:32.146Z,10.90
2022-09-09T05:24:32.228Z,10.90
2022-09-09T05:25:32.128Z,11.70
2022-09-09T05:26:32.099Z,11.30
2022-09-09T05:27:32.098Z,11.30
2022-09-09T05:28:32.164Z,11.00
2022-09-09T05:29:32.067Z,10.90
2022-09-09T05:30:32.069Z,10.80
2022-09-09T05:31:32.129Z,11.40
2022-09-09T05:32:32.030Z,11.80
2022-09-09T05:33:32.028Z,11.00
2022-09-09T05:34:32.010Z,11.30
2022-09-09T05:35:31.991Z,10.50
2022-09-09T05:36:31.991Z,10.90
2022-09-09T05:37:31.972Z,11.10
2022-09-09T05:38:31.959Z,10.60
2022-09-09T05:39:31.971Z,10.60
2022-09-09T05:40:31.920Z,10.70
2022-09-09T05:41:31.909Z,10.40
2022-09-09T05:42:31.892Z,10.60
2022-09-09T05:43:31.889Z,10.70
2022-09-09T05:44:31.880Z,10.40
2022-09-09T05:45:31.859Z,10.90
2022-09-09T05:46:31.882Z,10.40
2022-09-09T05:47:31.843Z,10.00
2022-09-09T05:48:31.832Z,10.10
2022-09-09T05:49:31.812Z,10.10
2022-09-09T05:50:31.824Z,10.30
2022-09-09T05:51:31.778Z,9.90
2022-09-09T05:52:31.762Z,10.20
2022-09-09T05:53:31.781Z,10.10
2022-09-09T05:54:31.738Z,10.20
2022-09-09T05:55:31.733Z,10.10
2022-09-09T05:56:31.740Z,10.10
2022-09-09T05:57:31.722Z,10.20
2022-09-09T05:58:31.723Z,9.80
2022-09-09T05:59:31.682Z,9.60
2022-09-09T06:00:31.662Z,9.50
2022-09-09T06:01:31.749Z,9.80
2022-09-09T06:02:31.772Z,10.10
2022-09-09T06:03:31.881Z,10.10
2022-09-09T06:04:31.603Z,9.60
2022-09-09T06:05:31.592Z,9.50
2022-09-09T06:06:31.589Z,10.40
2022-09-09T06:07:31.570Z,9.90
2022-09-09T06:08:31.553Z,9.50
2022-09-09T06:09:31.546Z,10.00
2022-09-09T06:10:31.524Z,9.50
2022-09-09T06:11:31.544Z,9.90
2022-09-09T06:12:31.537Z,9.70
2022-09-09T06:13:31.503Z,9.80
2022-09-09T06:14:31.486Z,9.80
2022-09-09T06:15:31.474Z,9.20
2022-09-09T06:16:31.504Z,9.80
2022-09-09T06:17:31.454Z,9.80
2022-09-09T06:18:31.438Z,9.70
2022-09-09T06:19:31.423Z,9.90
2022-09-09T06:20:31.393Z,9.40
2022-09-09T06:21:31.384Z,9.20
2022-09-09T06:22:31.383Z,9.80
2022-09-09T06:23:31.354Z,10.00
2022-09-09T06:24:31.357Z,9.30
2022-09-09T06:25:31.341Z,9.10
2022-09-09T06:26:31.325Z,9.60
2022-09-09T06:27:31.322Z,9.40
2022-09-09T06:28:31.298Z,9.60
2022-09-09T06:29:31.290Z,9.60
2022-09-09T06:30:31.276Z,9.40
2022-09-09T06:31:38.416Z,9.40
2022-09-09T06:32:31.254Z,9.50
2022-09-09T06:33:31.234Z,8.80
2022-09-09T06:34:31.228Z,9.10
2022-09-09T06:35:31.203Z,9.00
2022-09-09T06:36:31.184Z,9.20
2022-09-09T06:37:31.203Z,8.90
2022-09-09T06:38:31.171Z,8.70
2022-09-09T06:39:31.230Z,8.70
2022-09-09T06:40:31.133Z,8.90
2022-09-09T06:41:31.126Z,8.80
2022-09-09T06:42:31.115Z,9.10
2022-09-09T06:43:31.116Z,8.60
2022-09-09T06:44:34.941Z,8.60
2022-09-09T06:45:31.075Z,8.90
2022-09-09T06:46:31.116Z,8.30
2022-09-09T06:47:31.048Z,8.90
2022-09-09T06:48:31.036Z,8.50
2022-09-09T06:49:31.035Z,8.60
2022-09-09T06:50:31.005Z,8.20
2022-09-09T06:51:31.004Z,8.50
2022-09-09T06:52:30.987Z,8.20
2022-09-09T06:53:31.019Z,7.80
2022-09-09T06:54:30.988Z,7.90
2022-09-09T06:55:30.956Z,7.80
2022-09-09T06:56:30.935Z,7.50
2022-09-09T06:57:37.418Z,7.50
2022-09-09T06:58:31.896Z,7.40
2022-09-09T06:59:30.905Z,7.40
2022-09-09T07:00:30.902Z,7.30
2022-09-09T07:01:30.881Z,7.40
2022-09-09T07:02:30.856Z,7.60
2022-09-09T07:03:30.843Z,7.30
2022-09-09T07:04:30.837Z,7.60
2022-09-09T07:05:30.827Z,7.30
2022-09-09T07:06:30.808Z,7.50
2022-09-09T07:07:30.829Z,7.20
2022-09-09T07:08:30.788Z,7.10
2022-09-09T07:09:30.788Z,7.10
2022-09-09T07:10:30.758Z,7.10
2022-09-09T07:11:30.747Z,7.50
2022-09-09T07:12:30.737Z,7.20
2022-09-09T07:13:30.719Z,7.00
2022-09-09T07:14:30.717Z,6.80
2022-09-09T07:15:30.687Z,6.70
2022-09-09T07:16:30.738Z,7.00
2022-09-09T07:17:30.657Z,7.30
2022-09-09T07:18:30.658Z,6.90
2022-09-09T07:19:30.658Z,7.30
2022-09-09T07:20:30.629Z,7.00
2022-09-09T07:21:30.618Z,7.00
2022-09-09T07:22:30.639Z,7.30
2022-09-09T07:23:34.281Z,7.60
2022-09-09T07:24:31.597Z,7.30
2022-09-09T07:25:30.570Z,7.20
2022-09-09T07:26:30.543Z,7.60
2022-09-09T07:27:30.529Z,7.30
2022-09-09T07:28:30.518Z,6.50
2022-09-09T07:29:30.517Z,6.90
2022-09-09T07:30:30.480Z,6.90
2022-09-09T07:31:30.515Z,7.10
2022-09-09T07:32:30.450Z,6.90
2022-09-09T07:33:30.440Z,7.00
2022-09-09T07:34:30.438Z,7.30
2022-09-09T07:35:30.431Z,7.10
2022-09-09T07:36:33.431Z,7.20
2022-09-09T07:37:30.411Z,6.70
2022-09-09T07:38:30.439Z,7.00
2022-09-09T07:39:30.445Z,7.00
2022-09-09T07:40:30.351Z,6.50
2022-09-09T07:41:30.349Z,6.50
2022-09-09T07:42:30.340Z,6.30
2022-09-09T07:43:30.313Z,6.40
2022-09-09T07:44:30.295Z,6.80
2022-09-09T07:45:30.284Z,6.40
2022-09-09T07:46:30.301Z,6.50
2022-09-09T07:47:30.271Z,6.90
2022-09-09T07:48:30.331Z,6.80
2022-09-09T07:49:32.928Z,6.90
2022-09-09T07:50:30.211Z,7.00
2022-09-09T07:51:30.200Z,6.70
2022-09-09T07:52:30.199Z,6.50
2022-09-09T07:53:31.670Z,6.30
2022-09-09T07:54:30.162Z,6.30
2022-09-09T07:55:30.154Z,6.10
2022-09-09T07:56:30.134Z,6.30
2022-09-09T07:57:30.173Z,6.40
2022-09-09T07:58:30.123Z,5.90
2022-09-09T07:59:30.095Z,6.30
2022-09-09T08:00:30.085Z,6.30
2022-09-09T08:01:30.103Z,5.80
2022-09-09T08:02:30.050Z,5.70
2022-09-09T08:03:30.045Z,5.80
2022-09-09T08:04:30.023Z,5.90
2022-09-09T08:05:30.008Z,5.90
2022-09-09T08:06:30.002Z,5.90
2022-09-09T08:07:30.044Z,5.50
2022-09-09T08:08:29.984Z,6.10
2022-09-09T08:09:30.280Z,6.00
2022-09-09T08:10:29.964Z,5.70
2022-09-09T08:11:29.938Z,5.80
2022-09-09T08:12:29.925Z,5.50
2022-09-09T08:13:29.916Z,5.70
2022-09-09T08:14:29.915Z,5.40
2022-09-09T08:15:29.886Z,6.00
2022-09-09T08:16:29.876Z,5.70
2022-09-09T08:17:32.039Z,5.60
2022-09-09T08:18:29.846Z,5.80
2022-09-09T08:19:29.815Z,5.50
2022-09-09T08:20:29.815Z,5.70
2022-09-09T08:21:29.797Z,5.50
2022-09-09T08:22:29.785Z,5.70
2022-09-09T08:23:29.870Z,5.60
2022-09-09T08:24:29.773Z,5.70
2022-09-09T08:25:29.769Z,5.70
2022-09-09T08:26:29.748Z,5.60
2022-09-09T08:27:29.728Z,5.60
2022-09-09T08:28:30.518Z,5.60
2022-09-09T08:29:29.727Z,5.40
2022-09-09T08:30:29.835Z,5.30
2022-09-09T08:31:29.682Z,5.80
2022-09-09T08:32:29.669Z,5.60
2022-09-09T08:33:29.743Z,5.70
2022-09-09T08:34:29.637Z,5.30
2022-09-09T08:35:29.708Z,5.30
2022-09-09T08:36:29.614Z,5.50
2022-09-09T08:37:29.607Z,5.60
2022-09-09T08:38:29.588Z,5.10
2022-09-09T08:39:29.568Z,5.40
2022-09-09T08:40:29.570Z,5.00
2022-09-09T08:41:29.547Z,5.40
2022-09-09T08:42:29.540Z,5.10
2022-09-09T08:43:29.549Z,5.00
2022-09-09T08:44:29.509Z,5.30
2022-09-09T08:45:29.491Z,4.70
2022-09-09T08:46:29.525Z,4.60
2022-09-09T08:47:33.592Z,4.70
2022-09-09T08:48:29.517Z,4.60
2022-09-09T08:49:29.437Z,4.70
2022-09-09T08:50:29.427Z,4.90
2022-09-09T08:51:29.443Z,4.50
2022-09-09T08:52:29.438Z,4.30
2022-09-09T08:53:29.380Z,4.40
2022-09-09T08:54:50.628Z,4.30
2022-09-09T08:55:30.446Z,4.30
2022-09-09T08:56:29.365Z,4.80
2022-09-09T08:57:29.342Z,4.50
2022-09-09T08:58:29.363Z,4.40
2022-09-09T08:59:29.303Z,4.60
2022-09-09T09:00:29.365Z,4.40
2022-09-09T09:01:29.352Z,4.80
2022-09-09T09:02:29.262Z,4.70
2022-09-09T09:03:29.242Z,4.60
2022-09-09T09:04:29.288Z,4.50
2022-09-09T09:05:29.234Z,4.50
2022-09-09T09:06:29.235Z,4.40
2022-09-09T09:07:32.700Z,4.20
2022-09-09T09:08:29.217Z,4.20
2022-09-09T09:09:29.181Z,4.60
2022-09-09T09:10:41.604Z,4.20
2022-09-09T09:11:30.152Z,4.00
2022-09-09T09:12:29.161Z,4.20
2022-09-09T09:13:29.114Z,4.00
2022-09-09T09:15:32.089Z,3.80
2022-09-09T09:16:29.080Z,3.70
2022-09-09T09:17:29.064Z,3.90
2022-09-09T09:18:29.127Z,4.20
2022-09-09T09:19:29.035Z,3.70
2022-09-09T09:20:29.083Z,3.90
2022-09-09T09:21:29.026Z,3.90
2022-09-09T09:22:29.017Z,3.60
2022-09-09T09:23:29.026Z,3.70
2022-09-09T09:24:28.987Z,3.60
2022-09-09T09:25:28.974Z,3.40
2022-09-09T09:26:28.966Z,3.50
2022-09-09T09:27:28.947Z,3.50
2022-09-09T09:28:28.947Z,3.40
2022-09-09T09:29:28.906Z,3.40
2022-09-09T09:30:30.524Z,3.50
2022-09-09T09:31:28.959Z,3.50
2022-09-09T09:32:28.877Z,3.50
2022-09-09T09:33:28.874Z,3.40
2022-09-09T09:34:28.849Z,3.20
2022-09-09T09:35:28.848Z,3.30
2022-09-09T09:36:28.839Z,3.20
2022-09-09T09:37:29.112Z,3.40
2022-09-09T09:40:29.780Z,3.40
2022-09-09T09:41:28.750Z,3.20
2022-09-09T09:42:28.739Z,3.20
2022-09-09T09:43:28.727Z,3.40
2022-09-09T09:44:28.762Z,3.20
2022-09-09T09:45:28.697Z,3.40
2022-09-09T09:46:28.766Z,3.40
2022-09-09T09:47:28.676Z,3.40
2022-09-09T09:48:28.709Z,3.60
2022-09-09T09:49:28.658Z,3.50
2022-09-09T09:50:28.637Z,3.50
2022-09-09T09:51:28.619Z,3.60
2022-09-09T09:52:28.619Z,3.70
2022-09-09T09:53:28.601Z,3.70
2022-09-09T09:54:28.626Z,3.40
2022-09-09T09:55:28.581Z,3.60
2022-09-09T09:56:28.568Z,3.60
2022-09-09T09:57:28.585Z,3.40
2022-09-09T09:58:28.535Z,3.70
2022-09-09T09:59:43.830Z,3.50
2022-09-09T10:00:29.520Z,3.50
2022-09-09T10:01:28.599Z,3.60
2022-09-09T10:02:28.479Z,3.30
2022-09-09T10:03:28.499Z,3.30
2022-09-09T10:04:28.457Z,3.60
2022-09-09T10:05:30.642Z,3.70
2022-09-09T10:06:29.424Z,3.40
2022-09-09T10:07:28.405Z,3.50
2022-09-09T10:08:28.397Z,3.30
2022-09-09T10:09:28.394Z,3.30
2022-09-09T10:10:28.384Z,3.30
2022-09-09T10:11:28.352Z,3.50
2022-09-09T10:12:28.343Z,3.20
2022-09-09T10:13:28.332Z,3.50
2022-09-09T10:14:28.332Z,2.90
2022-09-09T10:15:28.369Z,3.00
2022-09-09T10:16:28.400Z,2.90
2022-09-09T10:17:28.274Z,2.90
2022-09-09T10:18:28.265Z,3.00
2022-09-09T10:19:28.245Z,2.80
2022-09-09T10:20:28.238Z,3.20
2022-09-09T10:21:32.957Z,2.90
2022-09-09T10:22:29.226Z,3.20
2022-09-09T10:23:28.187Z,3.20
2022-09-09T10:24:28.176Z,3.10
2022-09-09T10:25:28.183Z,3.00
2022-09-09T10:26:28.166Z,3.10
2022-09-09T10:27:28.132Z,2.90
2022-09-09T10:28:28.116Z,2.80
2022-09-09T10:29:28.143Z,2.90
2022-09-09T10:30:28.096Z,2.90
2022-09-09T10:31:28.127Z,3.20
2022-09-09T10:32:28.084Z,3.00
2022-09-09T10:33:28.058Z,2.80
2022-09-09T10:34:29.824Z,2.80
2022-09-09T10:35:28.550Z,2.80
2022-09-09T10:36:28.028Z,3.00
2022-09-09T10:37:28.010Z,2.90
2022-09-09T10:38:28.008Z,3.10
2022-09-09T10:39:28.006Z,3.10
2022-09-09T10:40:28.017Z,3.00
2022-09-09T10:41:27.946Z,3.00
2022-09-09T10:42:27.928Z,3.00
2022-09-09T10:43:27.932Z,3.00
2022-09-09T10:44:27.900Z,3.20
2022-09-09T10:45:27.888Z,3.00
2022-09-09T10:46:27.940Z,2.80
2022-09-09T10:47:28.263Z,2.80
2022-09-09T10:48:27.849Z,2.80
2022-09-09T10:49:27.865Z,2.80
2022-09-09T10:50:38.059Z,2.90
2022-09-09T10:51:28.822Z,2.80
2022-09-09T10:52:27.811Z,2.70
2022-09-09T10:53:27.792Z,2.90
2022-09-09T10:54:27.782Z,2.80
2022-09-09T10:55:29.939Z,2.90
2022-09-09T10:56:27.781Z,2.90
2022-09-09T10:57:27.730Z,2.80
2022-09-09T10:58:27.722Z,2.90
2022-09-09T10:59:27.710Z,2.90
2022-09-09T11:00:27.709Z,2.80
2022-09-09T11:01:27.769Z,2.90
2022-09-09T11:02:27.671Z,2.60
2022-09-09T11:03:27.655Z,2.80
2022-09-09T11:04:27.673Z,2.90
2022-09-09T11:05:27.634Z,2.60
2022-09-09T11:06:27.658Z,2.90
2022-09-09T11:07:27.604Z,2.90
2022-09-09T11:08:27.612Z,2.80
2022-09-09T11:09:27.581Z,2.70
2022-09-09T11:10:27.565Z,2.60
2022-09-09T11:11:27.563Z,2.90
2022-09-09T11:12:27.543Z,2.70
2022-09-09T11:13:27.545Z,2.70
2022-09-09T11:14:27.518Z,2.80
2022-09-09T11:15:27.535Z,2.70
2022-09-09T11:16:27.526Z,2.70
2022-09-09T11:17:27.467Z,2.60
2022-09-09T11:18:27.475Z,2.60
2022-09-09T11:19:27.457Z,2.60
2022-09-09T11:20:27.452Z,2.80
2022-09-09T11:21:27.424Z,2.80
2022-09-09T11:22:27.413Z,2.50
2022-09-09T11:23:27.385Z,2.60
2022-09-09T11:24:27.392Z,2.90
2022-09-09T11:25:27.410Z,2.70
2022-09-09T11:26:27.356Z,2.30
2022-09-09T11:27:27.385Z,2.30
2022-09-09T11:28:28.130Z,2.50
2022-09-09T11:29:27.328Z,2.50
2022-09-09T11:30:53.701Z,2.50
2022-09-09T11:31:28.366Z,2.20
2022-09-09T11:32:27.288Z,2.20
2022-09-09T11:33:27.278Z,2.20
2022-09-09T11:34:27.328Z,2.30
2022-09-09T11:35:27.240Z,2.10
2022-09-09T11:36:27.227Z,2.10
2022-09-09T11:37:27.219Z,2.40
2022-09-09T11:38:27.198Z,2.30
2022-09-09T11:39:27.199Z,2.30
2022-09-09T11:40:27.227Z,2.20
2022-09-09T11:41:27.159Z,2.20
2022-09-09T11:42:27.148Z,2.20
2022-09-09T11:43:27.152Z,2.20
2022-09-09T11:44:27.138Z,2.30
2022-09-09T11:45:27.123Z,2.30
2022-09-09T11:46:27.176Z,2.20
2022-09-09T11:47:27.091Z,2.40
2022-09-09T11:48:27.081Z,2.30
2022-09-09T11:49:27.075Z,2.20
2022-09-09T11:50:27.061Z,2.10
2022-09-09T11:51:27.032Z,2.30
2022-09-09T11:52:27.032Z,2.20
2022-09-09T11:53:27.023Z,2.50
2022-09-09T11:54:26.991Z,2.50
2022-09-09T11:55:27.012Z,2.40
2022-09-09T11:56:26.963Z,2.10
2022-09-09T11:57:26.991Z,2.30
2022-09-09T11:58:26.942Z,1.90
2022-09-09T11:59:26.923Z,2.20
2022-09-09T12:00:26.914Z,2.10
2022-09-09T12:01:26.924Z,2.20
2022-09-09T12:02:26.968Z,2.10
2022-09-09T12:03:26.883Z,2.10
2022-09-09T12:04:26.873Z,2.00
2022-09-09T12:05:26.952Z,1.80
2022-09-09T12:06:26.860Z,2.00
2022-09-09T12:07:26.846Z,1.80
2022-09-09T12:08:26.815Z,1.80
2022-09-09T12:09:26.794Z,1.80
2022-09-09T12:10:26.783Z,2.00
2022-09-09T12:11:26.775Z,1.90
2022-09-09T12:12:26.773Z,1.90
2022-09-09T12:13:26.754Z,1.80
2022-09-09T12:14:26.777Z,1.80
2022-09-09T12:15:26.729Z,1.90
2022-09-09T12:16:26.765Z,1.80
2022-09-09T12:17:26.695Z,1.80
2022-09-09T12:18:26.684Z,1.80
2022-09-09T12:19:27.292Z,1.70
2022-09-09T12:20:26.655Z,1.70
2022-09-09T12:21:26.645Z,1.50
2022-09-09T12:22:26.708Z,1.60
2022-09-09T12:23:26.617Z,1.50
2022-09-09T12:24:26.607Z,1.70
2022-09-09T12:25:28.059Z,1.50
2022-09-09T12:26:26.619Z,1.50
2022-09-09T12:27:26.617Z,1.40
2022-09-09T12:28:26.550Z,1.30
2022-09-09T12:29:26.559Z,1.40
2022-09-09T12:30:26.539Z,1.40
2022-09-09T12:31:33.611Z,1.40
2022-09-09T12:32:26.542Z,1.40
2022-09-09T12:33:26.513Z,1.30
2022-09-09T12:34:26.489Z,1.30
2022-09-09T12:35:26.471Z,1.30
2022-09-09T12:36:26.453Z,1.40
2022-09-09T12:37:26.435Z,1.30
2022-09-09T12:38:26.470Z,1.30
2022-09-09T12:39:26.416Z,1.40
2022-09-09T12:40:26.406Z,1.30
2022-09-09T12:41:26.406Z,1.40
2022-09-09T12:42:26.367Z,1.50
2022-09-09T12:43:26.367Z,1.30
2022-09-09T12:44:26.370Z,1.40
2022-09-09T12:45:26.378Z,1.30
2022-09-09T12:46:26.386Z,1.40
2022-09-09T12:47:30.114Z,1.40
2022-09-09T12:48:26.326Z,1.30
2022-09-09T12:49:26.286Z,1.40
2022-09-09T12:50:26.256Z,1.30
2022-09-09T12:51:26.276Z,1.60
2022-09-09T12:52:26.344Z,1.40
2022-09-09T12:53:26.621Z,1.50
2022-09-09T12:54:26.217Z,1.40
2022-09-09T12:55:26.241Z,1.30
2022-09-09T12:56:26.190Z,1.40
2022-09-09T12:57:26.179Z,1.20
2022-09-09T12:58:26.170Z,1.30
2022-09-09T12:59:26.175Z,1.20
2022-09-09T13:00:26.140Z,1.10
2022-09-09T13:01:26.205Z,1.20
2022-09-09T13:02:26.165Z,1.20
2022-09-09T13:03:26.090Z,1.30
2022-09-09T13:04:26.087Z,1.30
2022-09-09T13:05:26.079Z,1.30
2022-09-09T13:06:29.178Z,1.20
2022-09-09T13:07:26.088Z,1.10
2022-09-09T13:08:26.035Z,1.30
2022-09-09T13:09:26.023Z,1.20